KTZR

Bolton Field Airport

Columbus, Ohio, USA
METAR KTZR 191347Z 00000KT 10SM SKC M04/M04 A3007
Observed Flight Rules
Dec-19 @ 13:47 UTC (10 minutes ago) Visual Flight Rules
Visibility Clouds
10 miles
  • Clear skies
Temperatures Readings
Current -4°C / 25°F
Dewpoint -4°C / 25°F
Humidity 100%
Altimeter 30.07" Hg
Pressure 1018 hPa
Elevation 276
METAR KTZR 191347Z 00000KT 10SM SKC M04/M04 A3007
Observed Flight Rules
Dec-19 @ 13:47 UTC
(10 minutes ago)
VFR
Clouds
  • Clear skies
Temperature Dewpoint
-4°C / 25°F -4°C / 25°F
Humidity Altimeter Pressure
100% 30.07" Hg 1018 hPa